Pullman, Washington
Current Conditions -  °F | °C
As of 6:53 AM on Saturday 25 Oct 2014 (Local Time) from KPUW Reporting Station
Clear Clear  
Wind Chill: 43°   Ceiling: Unl
Heat Index: 49°   Visibility: 10mi
Dew Point: 42°   Wind: 16mph
Humidity: 77%   Direction: 110°ESE
Pressure: 29.73"   Gusts: NA
Location:  46.73°N, 117.18°W
Report Text: KPUW 251353Z AUTO 11014KT 10SM CLR 09/06 A2973 RMK AO2 SLP070 T00940056
Loading
Personal Weather Stations






























Interactive Weather Map
Tropical Storm Tracking
New forecast layout! Learn more

10-Day Weather Forecast

Advertisements
Track Severe Weather on mobile